Time;durP1;ratioP1;P1;durP2;ratioP2;P2;SDS_P1;SDS_P2;PMS_P1;PMS_P2;Temp;Humidity;BMP_temperature;BMP_pressure;BME280_temperature;BME280_humidity;BME280_pressure;Samples;Min_cycle;Max_cycle;Signal;HPM_P1;HPM_P2
2023/03/02 00:01:08;;;;;;;15.68;11.70;;;3.60;99.90;;;;;;5067655;28;20044;-75
2023/03/02 00:03:36;;;;;;;12.50;10.60;;;3.60;99.90;;;;;;5087924;28;20075;-75
2023/03/02 00:06:02;;;;;;;11.70;9.85;;;3.60;99.90;;;;;;5085861;28;20075;-75
2023/03/02 00:08:28;;;;;;;10.15;8.77;;;3.50;99.90;;;;;;5071449;28;20453;-76
2023/03/02 00:10:55;;;;;;;10.00;8.70;;;3.60;99.90;;;;;;5072679;28;20066;-75
2023/03/02 00:13:21;;;;;;;12.32;9.25;;;3.50;99.90;;;;;;5082090;28;20040;-75
2023/03/02 00:15:47;;;;;;;9.75;8.55;;;3.50;99.90;;;;;;5083224;28;20051;-76
2023/03/02 00:18:13;;;;;;;9.20;7.80;;;3.50;99.90;;;;;;5083727;28;20040;-76
2023/03/02 00:20:38;;;;;;;10.00;8.97;;;3.50;99.90;;;;;;5091770;28;20310;-76
2023/03/02 00:23:04;;;;;;;9.73;8.40;;;3.50;99.90;;;;;;5072927;28;20302;-76
2023/03/02 00:25:29;;;;;;;10.75;9.02;;;3.50;99.90;;;;;;5088110;28;20131;-76
2023/03/02 00:27:55;;;;;;;12.20;9.93;;;3.40;99.90;;;;;;5060421;28;20040;-76
2023/03/02 00:30:21;;;;;;;11.30;8.83;;;3.40;99.90;;;;;;5088685;28;20312;-76
2023/03/02 00:32:46;;;;;;;10.32;8.93;;;3.40;99.90;;;;;;5074400;28;20305;-75
2023/03/02 00:35:12;;;;;;;10.13;8.65;;;3.40;99.90;;;;;;5087495;28;20040;-75
2023/03/02 00:37:38;;;;;;;9.98;7.95;;;3.40;99.90;;;;;;5090342;28;20527;-76
2023/03/02 00:40:05;;;;;;;7.88;6.15;;;3.40;99.90;;;;;;5091818;28;20068;-76
2023/03/02 00:42:32;;;;;;;8.50;6.85;;;3.40;99.90;;;;;;5065122;28;20388;-75
2023/03/02 00:45:00;;;;;;;8.77;7.10;;;3.40;99.90;;;;;;5046860;28;20406;-76
2023/03/02 00:47:27;;;;;;;8.30;6.20;;;3.30;99.90;;;;;;5071893;28;20044;-76
2023/03/02 00:49:54;;;;;;;7.32;6.30;;;3.40;99.90;;;;;;5057577;28;20044;-76
2023/03/02 00:52:19;;;;;;;7.95;6.78;;;3.30;99.90;;;;;;5071917;28;20067;-75
2023/03/02 00:54:45;;;;;;;8.70;6.83;;;3.40;99.90;;;;;;5082469;28;20040;-75
2023/03/02 00:57:11;;;;;;;9.25;7.03;;;3.40;99.90;;;;;;5088343;28;20382;-75
2023/03/02 00:59:38;;;;;;;9.32;7.35;;;3.40;99.90;;;;;;5088760;28;20056;-76
2023/03/02 01:02:05;;;;;;;9.07;7.20;;;3.30;99.90;;;;;;5090631;28;20056;-75
2023/03/02 01:04:39;;;;;;;8.57;6.43;;;3.30;99.90;;;;;;5071678;28;20144;-75
2023/03/02 01:07:10;;;;;;;7.18;5.60;;;3.30;99.90;;;;;;5071636;28;20067;-75
2023/03/02 01:09:38;;;;;;;7.65;6.57;;;3.30;99.90;;;;;;5087963;28;20044;-76
2023/03/02 01:12:08;;;;;;;8.38;6.03;;;3.30;99.90;;;;;;5085799;28;20044;-76
2023/03/02 01:14:35;;;;;;;7.10;5.72;;;3.40;99.90;;;;;;5098481;28;20054;-76
2023/03/02 01:17:01;;;;;;;9.73;7.90;;;3.40;99.90;;;;;;5080688;28;20051;-76
2023/03/02 01:19:28;;;;;;;8.52;7.03;;;3.30;99.90;;;;;;5085113;28;20388;-76
2023/03/02 01:21:53;;;;;;;;;;;3.30;99.90;;;;;;5061868;28;20124;-76
2023/03/02 01:24:19;;;;;;;11.02;7.60;;;3.30;99.90;;;;;;5053886;28;20004;-77
2023/03/02 01:26:45;;;;;;;10.00;7.30;;;3.20;99.90;;;;;;5060751;28;20052;-75
2023/03/02 01:29:10;;;;;;;9.83;7.53;;;3.20;99.90;;;;;;5089403;28;20378;-75
2023/03/02 01:31:36;;;;;;;12.18;9.43;;;3.20;99.90;;;;;;5090670;28;20315;-75
2023/03/02 01:34:02;;;;;;;10.15;8.55;;;3.20;99.90;;;;;;5078318;28;20123;-75
2023/03/02 01:36:27;;;;;;;11.48;9.00;;;3.20;99.90;;;;;;5055306;28;20447;-75
2023/03/02 01:38:53;;;;;;;12.68;9.88;;;3.20;99.90;;;;;;5078858;28;20052;-76
2023/03/02 01:41:19;;;;;;;9.15;7.00;;;3.20;99.90;;;;;;5090413;28;20115;-75
2023/03/02 01:43:45;;;;;;;11.98;9.15;;;3.20;99.90;;;;;;5083081;28;20107;-75
2023/03/02 01:46:26;;;;;;;15.50;10.93;;;3.20;99.90;;;;;;5064769;28;20079;-75
2023/03/02 01:48:51;;;;;;;16.17;11.60;;;3.20;99.90;;;;;;5071022;28;20051;-75
2023/03/02 01:51:21;;;;;;;18.07;13.77;;;3.20;99.90;;;;;;5078938;28;20124;-75
2023/03/02 01:53:49;;;;;;;17.27;12.65;;;3.20;99.90;;;;;;5086083;28;20035;-75
2023/03/02 01:56:18;;;;;;;17.25;12.68;;;3.30;99.90;;;;;;5088734;28;20075;-75
2023/03/02 01:58:47;;;;;;;16.48;12.13;;;3.20;99.90;;;;;;5071125;28;20040;-75
2023/03/02 02:01:16;;;;;;;16.73;11.80;;;3.10;99.90;;;;;;5086081;28;20059;-75
2023/03/02 02:03:49;;;;;;;16.35;10.95;;;3.20;99.90;;;;;;5060153;28;20047;-75
2023/03/02 02:06:29;;;;;;;14.90;11.40;;;3.20;99.90;;;;;;5084952;28;20079;-75
2023/03/02 02:08:56;;;;;;;14.00;10.70;;;3.20;99.90;;;;;;5090028;28;20058;-75
2023/03/02 02:11:23;;;;;;;12.77;9.75;;;3.40;99.90;;;;;;5068165;28;20487;-75
2023/03/02 02:13:58;;;;;;;13.77;9.95;;;3.40;99.90;;;;;;5072827;28;20039;-75
2023/03/02 02:16:26;;;;;;;12.02;9.00;;;3.30;99.90;;;;;;5064413;28;20086;-75
2023/03/02 02:18:52;;;;;;;15.73;11.43;;;3.30;99.90;;;;;;5082873;28;20040;-75
2023/03/02 02:21:21;;;;;;;17.70;12.68;;;3.40;99.90;;;;;;5082821;28;20513;-75
2023/03/02 02:23:53;;;;;;;14.93;11.73;;;3.50;99.90;;;;;;5084591;28;20048;-75
2023/03/02 02:26:28;;;;;;;15.05;11.57;;;3.50;99.90;;;;;;5096917;28;20040;-75
2023/03/02 02:29:14;;;;;;;16.00;11.90;;;3.30;99.90;;;;;;5083934;28;20032;-75
2023/03/02 02:31:55;;;;;;;15.55;12.13;;;3.40;99.90;;;;;;5081892;28;20047;-75
2023/03/02 02:34:29;;;;;;;18.35;12.85;;;3.50;99.90;;;;;;5084373;28;20125;-75
2023/03/02 02:37:19;;;;;;;17.55;11.80;;;3.40;99.90;;;;;;5089261;28;20054;-75
2023/03/02 02:39:47;;;;;;;17.50;12.13;;;3.50;99.90;;;;;;5070466;28;20522;-75
2023/03/02 02:42:26;;;;;;;22.65;14.43;;;3.40;99.90;;;;;;5066617;28;20036;-75
2023/03/02 02:44:56;;;;;;;18.75;13.40;;;3.30;99.90;;;;;;5073500;28;20125;-75
2023/03/02 02:47:23;;;;;;;20.25;13.73;;;3.50;99.90;;;;;;5087361;28;20051;-75
2023/03/02 02:49:52;;;;;;;17.20;11.43;;;3.30;99.90;;;;;;5086061;28;20044;-75
2023/03/02 02:52:21;;;;;;;17.42;11.93;;;3.30;99.90;;;;;;5057719;28;20048;-75
2023/03/02 02:54:50;;;;;;;14.50;9.82;;;3.50;99.90;;;;;;5085694;28;20081;-76
2023/03/02 02:57:18;;;;;;;17.35;11.82;;;3.30;99.90;;;;;;5072396;28;20043;-75
2023/03/02 02:59:51;;;;;;;18.42;13.00;;;3.60;99.90;;;;;;5089789;28;20143;-75
2023/03/02 03:02:23;;;;;;;18.10;12.77;;;3.30;99.90;;;;;;5079782;28;20113;-75
2023/03/02 03:04:49;;;;;;;17.02;11.63;;;3.50;99.90;;;;;;5090194;28;20364;-75
2023/03/02 03:07:19;;;;;;;;;;;3.30;99.90;;;;;;5075275;28;20391;-75
2023/03/02 03:09:52;;;;;;;20.23;12.85;;;3.50;99.90;;;;;;5068240;28;19928;-75
2023/03/02 03:12:21;;;;;;;22.27;14.63;;;3.40;99.90;;;;;;5079175;28;20108;-75
2023/03/02 03:14:47;;;;;;;21.35;14.50;;;3.40;99.90;;;;;;5069858;28;20040;-75
2023/03/02 03:17:13;;;;;;;19.30;12.85;;;3.30;99.90;;;;;;5086370;28;20040;-75
2023/03/02 03:19:42;;;;;;;18.25;11.65;;;3.40;99.90;;;;;;5088913;28;20055;-75
2023/03/02 03:22:10;;;;;;;21.30;12.93;;;3.20;99.90;;;;;;5073653;28;20055;-75
2023/03/02 03:24:37;;;;;;;20.48;13.05;;;3.50;99.90;;;;;;5078709;28;20047;-75
2023/03/02 03:27:05;;;;;;;21.08;13.45;;;3.30;99.90;;;;;;5086540;28;20376;-75
2023/03/02 03:29:32;;;;;;;24.10;14.73;;;3.30;99.90;;;;;;5087035;28;20139;-75
2023/03/02 03:31:59;;;;;;;24.40;14.32;;;3.40;99.90;;;;;;5086213;28;20048;-75
2023/03/02 03:34:26;;;;;;;32.20;18.65;;;3.20;99.90;;;;;;5074091;28;20052;-75
2023/03/02 03:36:53;;;;;;;28.60;17.90;;;3.20;99.90;;;;;;5067680;28;20476;-75
2023/03/02 03:39:19;;;;;;;29.10;18.23;;;3.10;99.90;;;;;;5093357;28;20058;-74
2023/03/02 03:41:45;;;;;;;28.73;16.75;;;3.30;99.90;;;;;;5086320;28;20036;-75
2023/03/02 03:44:11;;;;;;;31.20;19.50;;;3.30;99.90;;;;;;5087259;28;20114;-74
2023/03/02 03:46:37;;;;;;;29.58;17.48;;;3.30;99.90;;;;;;5071248;28;20071;-74
2023/03/02 03:49:03;;;;;;;28.55;17.05;;;3.30;99.90;;;;;;5091145;28;20447;-74
2023/03/02 03:51:34;;;;;;;31.92;18.00;;;3.20;99.90;;;;;;5089499;28;20052;-74
2023/03/02 03:54:04;;;;;;;34.28;19.83;;;3.20;99.90;;;;;;5088989;28;20038;-75
2023/03/02 03:56:33;;;;;;;29.17;18.05;;;3.10;99.90;;;;;;5090732;28;20482;-75
2023/03/02 03:59:05;;;;;;;32.25;19.77;;;3.10;99.90;;;;;;5091130;28;20105;-75
2023/03/02 04:01:41;;;;;;;31.52;19.33;;;3.40;99.90;;;;;;5088391;28;20071;-75
2023/03/02 04:04:09;;;;;;;24.67;15.82;;;3.20;99.90;;;;;;5089606;28;20044;-74
2023/03/02 04:06:35;;;;;;;21.98;13.20;;;3.30;99.90;;;;;;5070872;28;20035;-74
2023/03/02 04:09:03;;;;;;;16.95;10.93;;;3.10;99.90;;;;;;5070079;28;20154;-75
2023/03/02 04:11:38;;;;;;;22.88;14.38;;;3.40;99.90;;;;;;5074917;28;20044;-75
2023/03/02 04:14:06;;;;;;;23.58;14.93;;;3.30;99.90;;;;;;5091303;28;20079;-74
2023/03/02 04:16:32;;;;;;;26.83;17.60;;;3.20;99.90;;;;;;5091746;28;20472;-74
2023/03/02 04:18:58;;;;;;;27.65;17.70;;;3.30;99.90;;;;;;5089152;28;20097;-74
2023/03/02 04:21:25;;;;;;;;;;;3.20;99.90;;;;;;5091318;28;20082;-74
2023/03/02 04:23:51;;;;;;;29.15;17.85;;;3.20;99.90;;;;;;5091429;28;19963;-74
2023/03/02 04:26:16;;;;;;;22.70;14.13;;;3.40;99.90;;;;;;5090324;28;20090;-75
2023/03/02 04:28:42;;;;;;;24.60;14.75;;;3.30;99.90;;;;;;5092275;28;20043;-74
2023/03/02 04:31:08;;;;;;;23.02;14.13;;;3.30;99.90;;;;;;5049508;28;20041;-75
2023/03/02 04:33:33;;;;;;;23.80;14.57;;;3.10;99.90;;;;;;5087249;28;20040;-75
2023/03/02 04:35:59;;;;;;;23.38;13.38;;;3.40;99.90;;;;;;5092334;28;20093;-74
2023/03/02 04:38:28;;;;;;;19.00;12.45;;;3.20;99.90;;;;;;5086563;28;20054;-75
2023/03/02 04:40:57;;;;;;;17.92;11.25;;;3.20;99.90;;;;;;5074222;28;20431;-75
2023/03/02 04:43:24;;;;;;;29.48;18.38;;;3.10;99.90;;;;;;5064305;28;20127;-75
2023/03/02 04:45:52;;;;;;;25.90;16.10;;;3.30;99.90;;;;;;5083693;28;20557;-75
2023/03/02 04:48:18;;;;;;;36.58;20.33;;;3.10;99.90;;;;;;5057237;28;20044;-75
2023/03/02 04:50:44;;;;;;;31.88;17.92;;;3.10;99.90;;;;;;5089523;28;20043;-75
2023/03/02 04:53:11;;;;;;;36.40;19.63;;;3.00;99.90;;;;;;5087241;28;20135;-75
2023/03/02 04:55:37;;;;;;;37.10;18.20;;;3.30;99.90;;;;;;5085181;28;21250;-74
2023/03/02 04:58:03;;;;;;;34.08;17.77;;;3.30;99.90;;;;;;5087781;28;20036;-75
2023/03/02 05:00:32;;;;;;;33.10;18.20;;;3.00;99.90;;;;;;5085735;28;20119;-74
2023/03/02 05:02:59;;;;;;;33.40;17.45;;;3.10;99.90;;;;;;5068767;28;20548;-75
2023/03/02 05:05:25;;;;;;;34.13;17.92;;;3.10;99.90;;;;;;5087201;28;20044;-75
2023/03/02 05:07:51;;;;;;;;;;;2.90;99.90;;;;;;5080726;28;20139;-75
2023/03/02 05:10:18;;;;;;;35.85;18.27;;;2.90;99.90;;;;;;5065602;28;19920;-74
2023/03/02 05:12:53;;;;;;;35.92;17.50;;;2.90;99.90;;;;;;5061584;28;20535;-74
2023/03/02 05:15:39;;;;;;;25.23;13.80;;;3.20;99.90;;;;;;5084259;28;20102;-73
2023/03/02 05:18:09;;;;;;;30.60;15.45;;;3.10;99.90;;;;;;5087458;28;20054;-74
2023/03/02 05:20:37;;;;;;;23.95;12.95;;;2.90;99.90;;;;;;5087976;28;20408;-75
2023/03/02 05:23:05;;;;;;;26.33;13.77;;;2.90;99.90;;;;;;5078366;28;20044;-75
2023/03/02 05:25:34;;;;;;;24.45;13.07;;;3.10;99.90;;;;;;5082642;28;20040;-74
2023/03/02 05:28:01;;;;;;;21.05;11.95;;;3.10;99.90;;;;;;5081081;28;20478;-74
2023/03/02 05:30:27;;;;;;;;;;;3.20;99.90;;;;;;5077907;28;20132;-74
2023/03/02 05:32:53;;;;;;;30.30;14.73;;;2.80;99.90;;;;;;5078127;28;20016;-74
2023/03/02 05:35:20;;;;;;;23.70;12.35;;;2.80;99.90;;;;;;5086046;28;20876;-74
2023/03/02 05:37:46;;;;;;;22.63;12.85;;;3.20;99.90;;;;;;5079591;28;20570;-74
2023/03/02 05:40:16;;;;;;;24.10;13.38;;;2.70;99.90;;;;;;5079559;28;20056;-75
2023/03/02 05:42:42;;;;;;;25.50;14.05;;;2.70;99.90;;;;;;5090156;28;20039;-74
2023/03/02 05:45:15;;;;;;;26.08;13.85;;;2.70;99.90;;;;;;5073984;28;20563;-74
2023/03/02 05:47:41;;;;;;;25.98;14.57;;;3.10;99.90;;;;;;5082799;28;20044;-74
2023/03/02 05:50:07;;;;;;;27.02;14.77;;;2.80;99.90;;;;;;5084959;28;20047;-74
2023/03/02 05:52:33;;;;;;;31.73;16.38;;;3.30;99.90;;;;;;5075794;28;20097;-74
2023/03/02 05:54:58;;;;;;;34.53;16.67;;;3.20;99.90;;;;;;5085816;28;20052;-74
2023/03/02 05:57:24;;;;;;;36.15;18.75;;;3.20;99.90;;;;;;5071160;28;20296;-74
2023/03/02 05:59:50;;;;;;;29.58;16.48;;;3.30;99.90;;;;;;5085636;28;20052;-75
2023/03/02 06:02:16;;;;;;;29.55;15.23;;;3.30;99.90;;;;;;5088361;28;20139;-75
2023/03/02 06:04:43;;;;;;;28.08;15.77;;;3.40;99.90;;;;;;5078278;28;20123;-75
2023/03/02 06:07:12;;;;;;;25.60;15.07;;;3.00;99.90;;;;;;5084666;28;20119;-75
2023/03/02 06:09:39;;;;;;;25.65;15.00;;;3.30;99.90;;;;;;5087794;28;20688;-76
2023/03/02 06:12:06;;;;;;;24.48;14.55;;;2.80;99.90;;;;;;5086681;28;20042;-75
2023/03/02 06:14:32;;;;;;;25.33;15.18;;;3.10;99.90;;;;;;5085507;28;20054;-75
2023/03/02 06:16:58;;;;;;;22.25;12.45;;;2.80;99.90;;;;;;5086075;28;20048;-74
2023/03/02 06:19:23;;;;;;;20.38;12.25;;;3.10;99.90;;;;;;5084120;28;20048;-75
2023/03/02 06:21:49;;;;;;;20.92;12.40;;;3.00;99.90;;;;;;5066700;28;20384;-75
2023/03/02 06:24:15;;;;;;;24.42;15.07;;;3.40;99.90;;;;;;5063472;28;20110;-75
2023/03/02 06:26:41;;;;;;;24.17;15.98;;;3.60;99.90;;;;;;5083815;28;20075;-75
2023/03/02 06:29:07;;;;;;;23.40;15.15;;;3.00;99.90;;;;;;5085208;28;20024;-75
2023/03/02 06:31:33;;;;;;;23.58;14.43;;;3.40;99.90;;;;;;5068230;28;20058;-75
2023/03/02 06:33:59;;;;;;;;;;;3.40;99.90;;;;;;5065802;28;20040;-75
2023/03/02 06:36:25;;;;;;;19.33;12.52;;;3.20;99.90;;;;;;5086596;28;20286;-75
2023/03/02 06:38:51;;;;;;;22.20;14.15;;;3.10;99.90;;;;;;5083299;28;20064;-75
2023/03/02 06:41:16;;;;;;;21.88;14.50;;;3.60;99.90;;;;;;5067903;28;20495;-75
2023/03/02 06:43:42;;;;;;;18.88;12.18;;;3.80;99.90;;;;;;5068521;28;20140;-75
2023/03/02 06:46:08;;;;;;;16.25;11.13;;;3.30;99.90;;;;;;5082686;28;20151;-75
2023/03/02 06:48:34;;;;;;;25.83;15.27;;;3.40;99.90;;;;;;5080788;28;20043;-75
2023/03/02 06:50:59;;;;;;;29.88;15.93;;;3.70;99.90;;;;;;5063494;28;20295;-75
2023/03/02 06:53:25;;;;;;;22.93;15.23;;;3.40;99.90;;;;;;5085436;28;20059;-75
2023/03/02 06:55:51;;;;;;;22.85;15.23;;;3.10;99.90;;;;;;5066901;28;20347;-76
2023/03/02 06:58:16;;;;;;;22.02;15.60;;;3.80;99.90;;;;;;5051789;28;20040;-74
2023/03/02 07:00:42;;;;;;;21.38;14.70;;;3.10;99.90;;;;;;5085574;28;20047;-75
2023/03/02 07:03:08;;;;;;;22.80;16.05;;;3.00;99.90;;;;;;5083990;28;20079;-73
2023/03/02 07:05:34;;;;;;;25.63;13.93;;;3.00;99.90;;;;;;5085744;28;20039;-74
2023/03/02 07:08:00;;;;;;;;;;;3.20;99.90;;;;;;5055262;28;20781;-74
2023/03/02 07:10:26;;;;;;;18.88;13.18;;;3.30;99.90;;;;;;5091730;28;19974;-75
2023/03/02 07:12:52;;;;;;;17.13;11.95;;;3.20;99.90;;;;;;5070212;28;20071;-75
2023/03/02 07:15:19;;;;;;;18.17;12.82;;;3.40;99.90;;;;;;5092393;27;20074;-74
2023/03/02 07:17:45;;;;;;;18.35;13.30;;;3.30;99.90;;;;;;5089752;28;20317;-74
2023/03/02 07:20:14;;;;;;;19.83;14.30;;;3.40;99.90;;;;;;5089754;28;20067;-75
2023/03/02 07:22:39;;;;;;;16.55;12.38;;;3.20;99.90;;;;;;5087505;28;20374;-74
2023/03/02 07:25:06;;;;;;;14.75;10.90;;;3.10;99.90;;;;;;5058561;28;20055;-74
2023/03/02 07:27:32;;;;;;;;;;;3.80;99.90;;;;;;5093578;28;20039;-75
2023/03/02 07:29:57;;;;;;;18.48;12.10;;;3.70;99.90;;;;;;5074631;28;20401;-74
2023/03/02 07:32:23;;;;;;;21.02;14.00;;;3.90;99.90;;;;;;5091460;28;20507;-74
2023/03/02 07:34:49;;;;;;;19.15;13.60;;;3.90;99.90;;;;;;5053702;28;20091;-74
2023/03/02 07:37:14;;;;;;;19.65;14.35;;;3.20;99.90;;;;;;5075394;28;20099;-77
2023/03/02 07:39:40;;;;;;;20.80;14.63;;;3.90;99.90;;;;;;5085793;28;20051;-74
2023/03/02 07:42:07;;;;;;;17.92;12.48;;;3.60;99.90;;;;;;5089429;28;20043;-74
2023/03/02 07:44:33;;;;;;;16.33;10.90;;;3.50;99.90;;;;;;5077090;28;20118;-75
2023/03/02 07:46:59;;;;;;;13.85;9.93;;;4.10;99.90;;;;;;5089355;28;20040;-75
2023/03/02 07:49:26;;;;;;;12.15;8.68;;;3.40;99.90;;;;;;5090967;28;20100;-75
2023/03/02 07:51:52;;;;;;;14.80;10.05;;;4.00;99.90;;;;;;5071918;28;20044;-74
2023/03/02 07:54:17;;;;;;;16.48;11.40;;;4.10;99.90;;;;;;5088243;28;20035;-75
2023/03/02 07:56:43;;;;;;;17.02;11.50;;;4.20;99.90;;;;;;5084823;28;20555;-74
2023/03/02 07:59:11;;;;;;;17.83;12.27;;;4.00;99.90;;;;;;5058303;28;20051;-74
2023/03/02 08:01:37;;;;;;;16.50;11.35;;;3.40;99.90;;;;;;5110737;28;20054;-74
2023/03/02 08:04:03;;;;;;;17.27;11.25;;;4.20;99.90;;;;;;5083485;28;20043;-75
2023/03/02 08:06:29;;;;;;;18.00;12.18;;;3.70;99.90;;;;;;5087947;28;20536;-74
2023/03/02 08:08:54;;;;;;;15.43;10.13;;;3.90;99.90;;;;;;5090131;28;20446;-74
2023/03/02 08:11:20;;;;;;;16.52;11.15;;;3.70;99.90;;;;;;5094799;28;20130;-75
2023/03/02 08:13:46;;;;;;;16.50;10.73;;;4.20;99.90;;;;;;5080973;28;20043;-75
2023/03/02 08:16:13;;;;;;;12.80;8.48;;;4.10;99.90;;;;;;5056670;28;20078;-75
2023/03/02 08:18:40;;;;;;;18.27;11.90;;;3.80;99.90;;;;;;5084631;28;20092;-75
2023/03/02 08:21:26;;;;;;;;;;;4.40;99.90;;;;;;5095182;28;20398;-75
2023/03/02 08:23:52;;;;;;;18.92;11.85;;;3.90;99.90;;;;;;5089536;28;20367;-74
2023/03/02 08:26:19;;;;;;;17.55;11.73;;;3.90;99.90;;;;;;5088200;28;20071;-75
2023/03/02 08:28:45;;;;;;;19.27;12.88;;;4.20;99.90;;;;;;5086138;28;20838;-75
2023/03/02 08:31:12;;;;;;;16.52;11.10;;;4.00;99.90;;;;;;5089130;28;20134;-75
2023/03/02 08:33:38;;;;;;;19.13;12.88;;;4.70;99.90;;;;;;5074836;28;20173;-75
2023/03/02 08:36:07;;;;;;;19.08;12.63;;;4.20;99.90;;;;;;5093287;28;20147;-75
2023/03/02 08:38:33;;;;;;;19.88;13.10;;;4.00;99.90;;;;;;5086566;28;20035;-75
2023/03/02 08:41:03;;;;;;;18.42;11.63;;;4.00;99.90;;;;;;5076095;28;20040;-75
2023/03/02 08:43:29;;;;;;;14.60;9.82;;;4.70;99.90;;;;;;5088370;28;20048;-75
2023/03/02 08:45:58;;;;;;;14.00;10.00;;;4.30;99.90;;;;;;5075979;28;20062;-75
2023/03/02 08:48:25;;;;;;;15.13;10.43;;;4.20;99.90;;;;;;5089235;27;21021;-75
2023/03/02 08:51:02;;;;;;;17.92;11.93;;;4.60;99.90;;;;;;5086894;28;20548;-75
2023/03/02 08:53:29;;;;;;;19.33;12.10;;;4.50;99.90;;;;;;5089912;28;20126;-75
2023/03/02 08:55:55;;;;;;;18.20;12.02;;;4.30;99.90;;;;;;5089584;28;20055;-75
2023/03/02 08:58:21;;;;;;;16.17;10.63;;;4.60;99.90;;;;;;5098446;28;20089;-75
2023/03/02 09:00:47;;;;;;;14.82;10.10;;;4.30;99.90;;;;;;5069272;28;20793;-75
2023/03/02 09:03:13;;;;;;;15.70;10.25;;;4.50;99.90;;;;;;5088744;28;20036;-75
2023/03/02 09:05:39;;;;;;;13.18;8.90;;;4.80;99.90;;;;;;5083714;28;20047;-75
2023/03/02 09:08:06;;;;;;;16.55;9.95;;;4.40;99.90;;;;;;5085805;28;20040;-75
2023/03/02 09:10:32;;;;;;;15.65;10.15;;;4.50;99.90;;;;;;5084896;28;20119;-75
2023/03/02 09:12:58;;;;;;;13.73;9.10;;;4.80;99.90;;;;;;5081157;28;20048;-75
2023/03/02 09:15:23;;;;;;;17.40;10.90;;;4.50;99.90;;;;;;5091107;28;20046;-75
2023/03/02 09:17:49;;;;;;;18.08;11.70;;;4.60;99.90;;;;;;5082215;28;20123;-74
2023/03/02 09:20:15;;;;;;;16.67;11.38;;;4.70;99.90;;;;;;5090034;28;20207;-76
2023/03/02 09:22:47;;;;;;;14.48;9.35;;;5.00;99.90;;;;;;5089485;28;20055;-73
2023/03/02 09:25:13;;;;;;;12.60;8.60;;;4.70;99.90;;;;;;5089791;28;20082;-74
2023/03/02 09:27:39;;;;;;;;;;;4.90;99.90;;;;;;5075274;28;20157;-74
2023/03/02 09:30:06;;;;;;;15.52;10.13;;;5.10;99.90;;;;;;5071223;28;20275;-73
2023/03/02 09:32:32;;;;;;;11.63;8.18;;;5.30;99.90;;;;;;5055202;28;20047;-74
2023/03/02 09:34:57;;;;;;;16.85;10.57;;;5.50;99.90;;;;;;5074600;28;20471;-74
2023/03/02 09:37:23;;;;;;;16.52;10.55;;;5.20;99.90;;;;;;5073738;28;20094;-73
2023/03/02 09:39:49;;;;;;;17.20;10.60;;;5.40;99.90;;;;;;5090853;28;20047;-73
2023/03/02 09:42:21;;;;;;;16.58;10.48;;;5.40;99.90;;;;;;5091794;28;20263;-74
2023/03/02 09:45:23;;;;;;;16.55;11.07;;;5.30;99.90;;;;;;5074009;28;20040;-74
2023/03/02 09:48:07;;;;;;;24.23;14.52;;;5.30;99.90;;;;;;5090994;28;20383;-73
2023/03/02 09:50:45;;;;;;;20.50;12.52;;;5.20;99.90;;;;;;5090431;28;20123;-73
2023/03/02 09:53:17;;;;;;;17.63;11.07;;;5.20;99.90;;;;;;5089845;28;20118;-74
2023/03/02 09:55:46;;;;;;;16.17;10.32;;;5.20;99.90;;;;;;5074277;28;20040;-74
2023/03/02 09:58:18;;;;;;;16.00;10.38;;;5.40;99.90;;;;;;5090390;28;20044;-74
2023/03/02 10:00:45;;;;;;;24.80;14.63;;;5.30;99.90;;;;;;5073559;28;20091;-74
2023/03/02 10:03:33;;;;;;;22.95;14.32;;;5.30;99.90;;;;;;5073667;28;20051;-74
2023/03/02 10:05:59;;;;;;;20.90;12.98;;;5.20;99.90;;;;;;5090051;28;20060;-74
2023/03/02 10:08:28;;;;;;;22.02;13.45;;;5.10;99.90;;;;;;5090126;28;20375;-71
2023/03/02 10:11:42;;;;;;;21.60;13.38;;;5.10;99.90;;;;;;5070004;28;20048;-72
2023/03/02 10:14:23;;;;;;;18.25;11.35;;;5.10;99.90;;;;;;5070155;28;20062;-73
2023/03/02 10:17:19;;;;;;;17.88;11.23;;;5.20;99.90;;;;;;5088070;28;20046;-74
2023/03/02 10:19:59;;;;;;;15.18;8.45;;;5.40;99.90;;;;;;5089149;28;20067;-75
2023/03/02 10:22:35;;;;;;;18.73;10.93;;;5.60;99.90;;;;;;5090381;28;20388;-75
2023/03/02 10:25:13;;;;;;;19.65;11.80;;;5.50;99.90;;;;;;5089953;28;20040;-75
2023/03/02 10:27:42;;;;;;;19.80;12.57;;;5.50;99.90;;;;;;5088670;28;20080;-76
2023/03/02 10:30:34;;;;;;;18.98;12.10;;;5.00;99.90;;;;;;5089622;28;20084;-75
2023/03/02 10:33:08;;;;;;;14.95;9.95;;;5.10;99.90;;;;;;5090126;28;20166;-75
2023/03/02 10:35:36;;;;;;;17.17;11.40;;;5.10;99.90;;;;;;5091323;28;20071;-76
2023/03/02 10:38:12;;;;;;;13.38;9.32;;;4.90;99.90;;;;;;5090118;28;20046;-76
2023/03/02 10:40:39;;;;;;;14.68;9.50;;;4.80;99.90;;;;;;5089757;28;20054;-76
2023/03/02 10:43:10;;;;;;;13.95;9.20;;;4.90;99.90;;;;;;5072230;28;20044;-75
2023/03/02 10:45:35;;;;;;;14.18;8.57;;;4.90;99.90;;;;;;5089851;28;20040;-75
2023/03/02 10:48:10;;;;;;;17.02;11.13;;;5.10;99.90;;;;;;5089922;28;20056;-75
2023/03/02 10:50:36;;;;;;;16.08;10.27;;;5.00;99.90;;;;;;5089696;28;20134;-74
2023/03/02 10:53:06;;;;;;;14.77;10.85;;;5.20;99.90;;;;;;5088960;28;20046;-75
2023/03/02 10:55:32;;;;;;;13.35;8.88;;;5.50;99.90;;;;;;5089725;28;20491;-76
2023/03/02 10:58:05;;;;;;;17.67;11.45;;;5.90;99.90;;;;;;5089674;28;20399;-75
2023/03/02 11:00:32;;;;;;;16.38;11.30;;;6.10;99.90;;;;;;5089608;28;20074;-75
2023/03/02 11:03:01;;;;;;;15.80;11.13;;;6.30;99.90;;;;;;5089782;28;20527;-76
2023/03/02 11:05:29;;;;;;;13.70;9.85;;;6.50;99.90;;;;;;5072900;28;20044;-75
2023/03/02 11:08:07;;;;;;;14.38;10.25;;;6.70;99.90;;;;;;5089788;28;20915;-76
2023/03/02 11:10:39;;;;;;;13.93;9.38;;;6.70;99.90;;;;;;5069359;28;20040;-75
2023/03/02 11:13:32;;;;;;;15.93;11.00;;;7.00;99.90;;;;;;5070810;28;20094;-75
2023/03/02 11:16:00;;;;;;;13.35;9.65;;;7.00;99.90;;;;;;5080573;28;20048;-74
2023/03/02 11:18:31;;;;;;;11.52;8.32;;;7.20;99.90;;;;;;5082509;28;20487;-74
2023/03/02 11:21:04;;;;;;;11.32;8.13;;;7.30;99.90;;;;;;5083501;28;20051;-75
2023/03/02 11:23:52;;;;;;;13.65;9.95;;;7.50;99.90;;;;;;5059737;28;20052;-75
2023/03/02 11:26:42;;;;;;;11.55;8.52;;;7.50;99.90;;;;;;5100917;28;20043;-75
2023/03/02 11:29:35;;;;;;;13.60;8.85;;;7.70;99.90;;;;;;5059139;28;21317;-75
2023/03/02 11:32:07;;;;;;;12.48;9.00;;;7.90;99.90;;;;;;5066160;28;20048;-75
2023/03/02 11:34:50;;;;;;;12.85;9.23;;;8.00;99.90;;;;;;5063985;28;20037;-75
2023/03/02 11:37:22;;;;;;;10.88;8.00;;;8.00;99.90;;;;;;5072792;28;20049;-75
2023/03/02 11:39:47;;;;;;;11.15;7.95;;;8.20;99.90;;;;;;5076119;28;20465;-75
2023/03/02 11:42:32;;;;;;;11.83;8.40;;;8.50;99.90;;;;;;5053637;28;20052;-75
2023/03/02 11:45:21;;;;;;;11.75;8.45;;;8.70;99.90;;;;;;5070339;28;20286;-74
2023/03/02 11:47:53;;;;;;;11.85;8.60;;;8.80;99.40;;;;;;5070266;28;20050;-74
2023/03/02 11:50:20;;;;;;;14.45;8.95;;;8.90;99.90;;;;;;5064113;28;20059;-75
2023/03/02 11:52:51;;;;;;;12.88;9.00;;;8.60;91.10;;;;;;5071123;28;20127;-74
2023/03/02 11:55:25;;;;;;;10.75;8.35;;;8.50;95.40;;;;;;5069130;28;20455;-74
2023/03/02 11:58:00;;;;;;;17.25;7.80;;;8.60;95.60;;;;;;5083802;28;20426;-74
2023/03/02 12:00:31;;;;;;;10.48;7.68;;;8.80;93.90;;;;;;5096808;27;20062;-74
2023/03/02 12:03:05;;;;;;;11.25;8.00;;;9.00;96.00;;;;;;5091923;28;20664;-75
2023/03/02 12:05:34;;;;;;;11.32;8.65;;;9.20;92.20;;;;;;5085536;28;20247;-74
2023/03/02 12:08:06;;;;;;;12.15;8.80;;;9.40;93.40;;;;;;5093388;28;20123;-75
2023/03/02 12:10:40;;;;;;;11.85;8.52;;;9.40;92.90;;;;;;5095649;28;20042;-74
2023/03/02 12:13:11;;;;;;;12.18;9.07;;;9.40;81.70;;;;;;5080642;28;20482;-74
2023/03/02 12:15:45;;;;;;;12.88;8.43;;;9.20;84.60;;;;;;5092178;28;20032;-76
2023/03/02 12:18:19;;;;;;;12.25;8.55;;;9.00;80.50;;;;;;5102910;28;20046;-74
2023/03/02 12:20:59;;;;;;;12.30;9.15;;;8.90;86.90;;;;;;5085795;28;21013;-74
2023/03/02 12:23:25;;;;;;;11.25;8.48;;;9.00;92.60;;;;;;5092604;28;20813;-74
2023/03/02 12:26:20;;;;;;;13.65;10.48;;;9.10;91.90;;;;;;5082860;28;20127;-74
2023/03/02 12:29:01;;;;;;;12.05;8.77;;;8.70;91.60;;;;;;5079587;28;20067;-75
2023/03/02 12:31:49;;;;;;;12.80;9.00;;;8.70;92.50;;;;;;5083316;28;20092;-74
2023/03/02 12:34:46;;;;;;;13.40;9.60;;;8.50;93.40;;;;;;5108798;28;20051;-75
2023/03/02 12:37:11;;;;;;;11.00;8.10;;;8.40;95.70;;;;;;5071571;28;20051;-74
2023/03/02 12:39:59;;;;;;;11.07;8.50;;;8.50;97.70;;;;;;5090232;28;20044;-74
2023/03/02 12:42:59;;;;;;;12.02;8.45;;;8.80;95.40;;;;;;5087090;28;20285;-74
2023/03/02 12:46:05;;;;;;;11.27;8.05;;;8.90;92.50;;;;;;5079604;28;20376;-74
2023/03/02 12:48:58;;;;;;;12.95;9.35;;;9.20;91.40;;;;;;5081860;28;20161;-75
2023/03/02 12:51:32;;;;;;;12.25;8.65;;;9.10;92.70;;;;;;5071497;28;20052;-74
2023/03/02 12:54:11;;;;;;;11.43;8.68;;;9.40;93.00;;;;;;5074841;28;20038;-74
2023/03/02 12:56:36;;;;;;;14.23;10.20;;;9.10;89.90;;;;;;5082530;28;20066;-74